Time;durP1;ratioP1;P1;durP2;ratioP2;P2;SDS_P1;SDS_P2;PMS_P1;PMS_P2;Temp;Humidity;BMP_temperature;BMP_pressure;BME280_temperature;BME280_humidity;BME280_pressure;Samples;Min_cycle;Max_cycle;Signal;HPM_P1;HPM_P2
2022/01/15 00:01:43;;;;;;;8.35;4.40;;;;;;;2.99;98.80;100481.41;5028137;28;20033;-72
2022/01/15 00:04:10;;;;;;;9.48;4.63;;;;;;;2.99;98.59;100493.25;5027893;28;20037;-67
2022/01/15 00:06:36;;;;;;;6.90;3.72;;;;;;;2.92;98.76;100497.06;5029432;28;20049;-69
2022/01/15 00:09:02;;;;;;;7.75;4.28;;;;;;;2.68;99.19;100465.69;5029431;28;20038;-72
2022/01/15 00:11:28;;;;;;;10.27;4.30;;;;;;;2.89;98.51;100507.94;5029552;28;20033;-70
2022/01/15 00:14:09;;;;;;;5.85;3.40;;;;;;;2.65;98.51;100470.59;5029363;28;20044;-72
2022/01/15 00:16:45;;;;;;;8.43;3.88;;;;;;;2.54;99.22;100468.19;5027457;28;20435;-71
2022/01/15 00:19:14;;;;;;;8.65;4.90;;;;;;;2.84;99.18;100519.50;5027910;28;20128;-72
2022/01/15 00:21:40;;;;;;;8.93;4.95;;;;;;;2.75;99.08;100517.22;5020523;28;20045;-72
2022/01/15 00:24:06;;;;;;;7.68;3.97;;;;;;;2.71;99.43;100534.72;5008915;28;20030;-71
2022/01/15 00:26:33;;;;;;;9.25;4.53;;;;;;;2.74;99.65;100547.66;5022690;28;20175;-72
2022/01/15 00:28:59;;;;;;;8.38;4.57;;;;;;;2.72;99.77;100549.25;5031638;28;20086;-71
2022/01/15 00:31:25;;;;;;;10.18;5.18;;;;;;;2.58;100.00;100536.44;5031625;28;20480;-71
2022/01/15 00:33:51;;;;;;;8.70;4.90;;;;;;;2.49;99.36;100514.50;5045686;28;20044;-71
2022/01/15 00:36:17;;;;;;;8.00;4.38;;;;;;;2.68;98.83;100558.34;5031699;28;20537;-71
2022/01/15 00:38:43;;;;;;;7.20;3.78;;;;;;;2.41;99.38;100494.47;5031511;28;20021;-73
2022/01/15 00:41:08;;;;;;;7.47;4.40;;;;;;;2.36;99.00;100494.94;5031093;28;20036;-68
2022/01/15 00:43:34;;;;;;;10.50;5.07;;;;;;;2.42;98.95;100511.53;5031075;28;20032;-72
2022/01/15 00:46:00;;;;;;;7.72;4.78;;;;;;;2.70;98.81;100571.19;5030993;28;20108;-72
2022/01/15 00:48:26;;;;;;;9.25;4.53;;;;;;;2.69;98.02;100567.78;5031321;28;20038;-72
2022/01/15 00:50:51;;;;;;;7.93;4.68;;;;;;;2.71;97.71;100583.16;5031305;28;20025;-72
2022/01/15 00:53:17;;;;;;;10.05;4.75;;;;;;;2.71;97.77;100567.88;5037120;28;20111;-67
2022/01/15 00:55:43;;;;;;;9.85;4.60;;;;;;;2.75;97.39;100582.59;5046146;28;20025;-66
2022/01/15 00:58:08;;;;;;;8.98;4.80;;;;;;;2.81;97.30;100590.66;5044944;28;20128;-68
2022/01/15 01:00:34;;;;;;;9.18;4.60;;;;;;;2.79;97.47;100596.44;5050510;28;20028;-68
2022/01/15 01:02:59;;;;;;;8.07;4.78;;;;;;;2.77;97.26;100596.34;5050441;28;20044;-69
2022/01/15 01:05:25;;;;;;;8.52;4.50;;;;;;;2.79;96.80;100606.63;5050442;28;20068;-69
2022/01/15 01:07:51;;;;;;;8.00;4.55;;;;;;;2.77;96.73;100600.53;5049729;28;20056;-69
2022/01/15 01:23:22;;;;;;;9.38;5.30;;;;;;;2.19;98.99;100632.16;5091162;28;20063;-70
2022/01/15 01:25:52;;;;;;;11.13;5.97;;;;;;;2.26;98.78;100636.06;5091012;28;20133;-70
2022/01/15 01:28:35;;;;;;;8.60;4.65;;;;;;;2.26;98.94;100636.91;5090878;28;20420;-69
2022/01/15 01:31:16;;;;;;;8.98;4.82;;;;;;;2.31;98.99;100637.25;5090692;28;20027;-69
2022/01/15 01:33:46;;;;;;;9.10;4.95;;;;;;;2.27;98.65;100637.81;5090754;28;20032;-69
2022/01/15 01:39:01;;;;;;;8.85;4.40;;;;;;;2.15;98.78;100653.09;5091088;28;20093;-69
2022/01/15 01:41:35;;;;;;;10.70;5.30;;;;;;;1.85;99.64;100639.00;5090978;28;20024;-69
2022/01/15 01:44:02;;;;;;;10.95;5.85;;;;;;;1.77;100.00;100641.84;5090399;28;20466;-70
2022/01/15 01:48:55;;;;;;;9.50;5.32;;;;;;;1.86;100.00;100644.19;5090998;28;20032;-69
2022/01/15 01:51:24;;;;;;;8.32;5.28;;;;;;;1.97;100.00;100665.34;5090858;28;20024;-69
2022/01/15 01:53:50;;;;;;;9.38;5.10;;;;;;;2.05;100.00;100656.59;5090728;28;20039;-70
2022/01/15 01:56:16;;;;;;;8.70;4.85;;;;;;;2.05;99.91;100654.06;5090702;28;20051;-72
2022/01/15 01:58:42;;;;;;;8.32;5.10;;;;;;;1.97;100.00;100647.53;5090502;28;20028;-68
2022/01/15 02:01:08;;;;;;;10.07;5.50;;;;;;;2.09;100.00;100648.44;5090745;28;20510;-70
2022/01/15 02:03:33;;;;;;;11.73;5.28;;;;;;;2.01;100.00;100644.44;5090838;28;20040;-69
2022/01/15 02:05:58;;;;;;;11.85;6.03;;;;;;;1.84;100.00;100643.16;5090921;28;20503;-69
2022/01/15 02:08:25;;;;;;;12.40;5.72;;;;;;;1.85;100.00;100674.63;5090367;28;20036;-70
2022/01/15 02:14:27;;;;;;;12.20;6.38;;;;;;;1.44;100.00;100637.63;5292965;22;20115;-65
2022/01/15 02:16:53;;;;;;;11.65;6.75;;;;;;;1.63;100.00;100682.28;5012359;28;20040;-67
2022/01/15 02:19:18;;;;;;;14.52;7.47;;;;;;;1.67;100.00;100685.19;5046052;28;20029;-69
2022/01/15 02:24:12;;;;;;;12.50;6.23;;;;;;;1.10;100.00;100680.81;5050670;28;20029;-69
2022/01/15 02:26:39;;;;;;;11.67;6.30;;;;;;;1.19;100.00;100685.75;5050575;28;20036;-69
2022/01/15 02:29:07;;;;;;;9.97;5.30;;;;;;;1.03;100.00;100679.44;5049926;28;20111;-68
2022/01/15 02:31:33;;;;;;;10.80;5.90;;;;;;;1.21;100.00;100692.72;5050095;28;20032;-68
2022/01/15 02:34:01;;;;;;;11.43;5.73;;;;;;;1.35;100.00;100696.31;5050342;28;20119;-69
2022/01/15 02:36:32;;;;;;;9.33;5.37;;;;;;;1.49;100.00;100704.13;5050479;28;20546;-67
2022/01/15 02:38:58;;;;;;;14.82;6.07;;;;;;;1.54;100.00;100703.72;5050406;28;20060;-69
2022/01/15 02:41:28;;;;;;;10.30;5.43;;;;;;;1.37;100.00;100699.88;5050365;28;20040;-65
2022/01/15 02:43:54;;;;;;;9.88;5.63;;;;;;;1.20;100.00;100692.59;5050328;28;20032;-69
2022/01/15 02:48:53;;;;;;;9.30;5.10;;;;;;;1.04;100.00;100704.09;5053667;28;20028;-68
2022/01/15 02:51:23;;;;;;;11.70;5.20;;;;;;;1.17;100.00;100722.88;5053756;28;20074;-69
2022/01/15 02:53:54;;;;;;;11.10;5.70;;;;;;;1.22;100.00;100735.19;5054288;28;20028;-69
2022/01/15 02:56:22;;;;;;;11.10;6.50;;;;;;;1.19;100.00;100740.00;5053611;28;20127;-67
2022/01/15 02:58:48;;;;;;;9.33;5.60;;;;;;;1.13;100.00;100730.28;5053251;28;20040;-69
2022/01/15 03:01:13;;;;;;;10.70;6.33;;;;;;;0.98;100.00;100693.44;5053713;28;20032;-70
2022/01/15 03:03:38;;;;;;;8.93;5.70;;;;;;;1.28;100.00;100725.50;5053418;28;20033;-69
2022/01/15 03:06:13;;;;;;;10.13;5.18;;;;;;;1.37;100.00;100744.75;5053551;28;20055;-68
2022/01/15 03:08:41;;;;;;;10.70;5.85;;;;;;;1.43;100.00;100756.34;5053238;28;20479;-70
2022/01/15 03:11:07;;;;;;;15.77;7.23;;;;;;;0.75;100.00;100696.72;5053194;28;20056;-71
2022/01/15 03:13:33;;;;;;;14.83;7.30;;;;;;;0.77;100.00;100707.88;5052853;28;20515;-67
2022/01/15 03:15:59;;;;;;;16.15;7.45;;;;;;;0.99;100.00;100755.38;5050485;28;20115;-68
2022/01/15 03:18:24;;;;;;;13.83;7.10;;;;;;;0.96;100.00;100748.38;5052928;28;20534;-68
2022/01/15 03:20:50;;;;;;;10.27;5.43;;;;;;;1.08;100.00;100764.59;5053084;28;20398;-68
2022/01/15 03:23:15;;;;;;;12.07;6.07;;;;;;;0.94;100.00;100749.91;5053521;28;20047;-68
2022/01/15 03:25:41;;;;;;;10.93;5.80;;;;;;;1.10;100.00;100769.81;5052828;28;20483;-69
2022/01/15 03:31:28;;;;;;;10.47;5.93;;;;;;;0.59;100.00;100745.41;5078717;22;20557;-69
2022/01/15 03:33:54;;;;;;;12.20;5.83;;;;;;;0.48;100.00;100770.81;5071482;28;20036;-69
2022/01/15 03:36:19;;;;;;;13.40;6.23;;;;;;;0.34;100.00;100784.03;5072407;28;20044;-68
2022/01/15 03:38:44;;;;;;;10.47;5.73;;;;;;;0.30;100.00;100790.50;5072810;28;20024;-67
2022/01/15 03:41:10;;;;;;;12.63;6.50;;;;;;;0.34;100.00;100796.75;5073029;28;20032;-68
2022/01/15 03:43:35;;;;;;;10.50;6.33;;;;;;;0.33;100.00;100805.13;5072383;28;20028;-68
2022/01/15 03:46:01;;;;;;;11.27;6.27;;;;;;;0.19;100.00;100801.44;5048694;28;20039;-68
2022/01/15 03:48:27;;;;;;;13.20;7.03;;;;;;;0.30;100.00;100818.44;5072242;28;20032;-67
2022/01/15 03:50:53;;;;;;;10.70;6.13;;;;;;;0.25;100.00;100793.41;5054512;28;20382;-67
2022/01/15 03:53:21;;;;;;;10.93;6.47;;;;;;;0.39;100.00;100818.31;5072445;28;20028;-68
2022/01/15 03:55:47;;;;;;;12.80;6.57;;;;;;;0.50;100.00;100811.59;5072200;28;20035;-68
2022/01/15 03:58:13;;;;;;;12.50;7.13;;;;;;;0.55;100.00;100799.25;5069829;28;20418;-68
2022/01/15 04:00:38;;;;;;;11.10;6.23;;;;;;;0.46;100.00;100827.34;5072274;28;20025;-68
2022/01/15 04:03:04;;;;;;;10.80;6.33;;;;;;;0.21;100.00;100834.56;5072057;28;20107;-68
2022/01/15 04:05:31;;;;;;;13.20;6.87;;;;;;;0.29;100.00;100844.59;5071786;28;20020;-65
2022/01/15 04:07:56;;;;;;;11.77;6.60;;;;;;;0.28;100.00;100842.81;5072010;28;20031;-68
2022/01/15 04:10:22;;;;;;;18.20;7.63;;;;;;;0.25;100.00;100854.38;5071972;28;20111;-67
2022/01/15 04:12:48;;;;;;;17.37;8.00;;;;;;;0.06;100.00;100829.97;5071967;28;20029;-67
2022/01/15 04:15:16;;;;;;;15.37;8.93;;;;;;;0.02;100.00;100862.59;5071636;28;20021;-71
2022/01/15 04:17:48;;;;;;;19.37;9.70;;;;;;;0.09;100.00;100859.81;5054084;28;20487;-68
2022/01/15 04:20:16;;;;;;;24.03;12.00;;;;;;;0.16;100.00;100867.16;5066068;28;20094;-72
2022/01/15 04:22:42;;;;;;;44.55;18.38;;;;;;;0.27;100.00;100870.63;5069418;28;20593;-68
2022/01/15 04:25:08;;;;;;;50.43;16.80;;;;;;;0.37;100.00;100857.94;5071521;28;20058;-69
2022/01/15 04:27:34;;;;;;;21.30;12.40;;;;;;;0.25;100.00;100859.44;5071790;28;20443;-69
2022/01/15 04:30:03;;;;;;;23.10;12.57;;;;;;;0.04;100.00;100877.19;5071644;28;20070;-69
2022/01/15 04:32:30;;;;;;;17.45;9.23;;;;;;;-0.01;100.00;100878.44;5071364;28;20082;-68
2022/01/15 04:34:56;;;;;;;17.93;9.77;;;;;;;-0.05;100.00;100853.53;5071514;28;20424;-68
2022/01/15 04:37:23;;;;;;;17.57;8.33;;;;;;;0.18;100.00;100885.97;5064107;28;20025;-68
2022/01/15 04:39:49;;;;;;;12.40;7.57;;;;;;;0.28;100.00;100891.06;5051357;28;20035;-69
2022/01/15 04:42:15;;;;;;;13.37;7.53;;;;;;;0.25;100.00;100902.63;5051354;28;20103;-69
2022/01/15 04:44:42;;;;;;;17.33;8.30;;;;;;;0.30;100.00;100889.56;5051409;28;20056;-72
2022/01/15 04:47:07;;;;;;;16.77;8.57;;;;;;;0.39;100.00;100896.19;5033469;28;20021;-70
2022/01/15 04:49:33;;;;;;;15.63;8.30;;;;;;;0.40;100.00;100897.94;5051244;28;20482;-69
2022/01/15 04:51:59;;;;;;;14.00;7.77;;;;;;;0.51;100.00;100904.81;5033499;28;20055;-69
2022/01/15 04:54:25;;;;;;;14.93;9.27;;;;;;;0.55;100.00;100905.97;5051099;28;20493;-69
2022/01/15 04:56:51;;;;;;;14.87;8.77;;;;;;;0.43;100.00;100895.69;5051267;28;20021;-69
2022/01/15 04:59:18;;;;;;;15.40;8.90;;;;;;;0.40;100.00;100934.41;5050890;28;20063;-69
2022/01/15 05:01:43;;;;;;;18.03;10.50;;;;;;;0.37;100.00;100931.59;5051093;28;20021;-69
2022/01/15 05:04:08;;;;;;;17.87;10.67;;;;;;;0.11;100.00;100909.97;5050943;28;20028;-69
2022/01/15 05:06:34;;;;;;;16.43;11.27;;;;;;;0.12;100.00;100928.63;4999578;28;20040;-69
2022/01/15 05:09:06;;;;;;;16.93;10.20;;;;;;;0.19;100.00;100932.56;5050759;28;20039;-69
2022/01/15 05:11:45;;;;;;;15.03;9.73;;;;;;;-0.29;100.00;100842.19;5050934;28;20180;-69
2022/01/15 05:14:12;;;;;;;15.77;9.47;;;;;;;0.32;100.00;100925.25;5050747;28;20508;-69
2022/01/15 05:16:38;;;;;;;17.17;10.87;;;;;;;0.29;100.00;100882.69;5050791;28;20033;-69
2022/01/15 05:19:04;;;;;;;21.23;11.17;;;;;;;1.10;100.00;100918.19;5061186;28;20380;-70
2022/01/15 05:21:29;;;;;;;20.33;11.43;;;;;;;1.42;100.00;100919.00;5071078;28;20032;-70
2022/01/15 05:23:55;;;;;;;19.77;11.40;;;;;;;1.61;100.00;100911.22;5052721;28;20036;-70
2022/01/15 05:26:40;;;;;;;18.70;10.70;;;;;;;1.46;100.00;100877.81;5028176;28;20052;-68
2022/01/15 05:29:06;;;;;;;16.15;10.27;;;;;;;1.84;100.00;100919.78;5028400;28;20065;-69
2022/01/15 05:31:31;;;;;;;16.33;9.67;;;;;;;1.94;100.00;100924.84;5027777;28;20053;-69
2022/01/15 05:33:57;;;;;;;16.23;9.57;;;;;;;2.00;100.00;100915.13;5028306;28;20522;-69
2022/01/15 05:36:22;;;;;;;16.92;11.18;;;;;;;1.80;100.00;100864.31;5026186;28;20045;-70
2022/01/15 05:38:48;;;;;;;13.95;9.60;;;;;;;2.31;100.00;100916.63;5025963;28;20080;-70
2022/01/15 05:41:13;;;;;;;17.45;10.38;;;;;;;2.33;100.00;100923.63;5011184;28;20070;-70
2022/01/15 05:43:39;;;;;;;15.55;10.50;;;;;;;2.31;100.00;100925.16;5009559;28;20248;-69
2022/01/15 05:46:04;;;;;;;18.73;10.35;;;;;;;2.29;100.00;100923.25;5027442;28;20041;-70
2022/01/15 05:48:30;;;;;;;18.15;10.13;;;;;;;2.29;100.00;100924.13;5027925;28;20157;-70
2022/01/15 05:50:55;;;;;;;16.45;10.45;;;;;;;2.36;100.00;100925.53;5028057;28;20064;-74
2022/01/15 05:53:21;;;;;;;16.80;10.25;;;;;;;2.38;100.00;100936.69;5028081;28;20037;-70
2022/01/15 05:55:46;;;;;;;17.67;10.75;;;;;;;2.20;100.00;100898.84;5027852;28;20037;-69
2022/01/15 05:58:12;;;;;;;16.38;10.80;;;;;;;2.48;100.00;100941.75;5058685;28;20590;-70
2022/01/15 06:00:37;;;;;;;17.83;11.13;;;;;;;2.55;100.00;100948.22;5070557;28;20510;-70
2022/01/15 06:03:03;;;;;;;16.60;10.38;;;;;;;2.60;100.00;100962.19;5070626;28;20082;-69
2022/01/15 06:05:28;;;;;;;17.02;10.27;;;;;;;2.59;100.00;100965.50;5070295;28;20040;-69
2022/01/15 06:07:55;;;;;;;19.70;11.00;;;;;;;2.54;100.00;100960.06;5070358;28;20028;-69
2022/01/15 06:10:20;;;;;;;18.35;10.30;;;;;;;2.57;100.00;100970.50;5070109;28;20037;-70
2022/01/15 06:12:46;;;;;;;15.30;10.30;;;;;;;2.23;100.00;100949.13;5069985;28;20508;-69
2022/01/15 06:15:13;;;;;;;18.35;11.18;;;;;;;2.21;100.00;100983.81;5070373;28;20024;-69
2022/01/15 06:17:38;;;;;;;18.50;11.43;;;;;;;2.19;100.00;100987.88;5070060;28;20449;-69
2022/01/15 06:20:05;;;;;;;17.67;11.52;;;;;;;2.28;100.00;100991.19;5070358;28;20029;-70
2022/01/15 06:22:30;;;;;;;16.55;10.88;;;;;;;2.34;100.00;100988.22;5072647;28;20040;-69
2022/01/15 06:24:56;;;;;;;16.35;10.45;;;;;;;2.23;100.00;100992.44;5073718;28;20029;-70
2022/01/15 06:27:21;;;;;;;19.17;10.95;;;;;;;2.21;100.00;101012.72;5074175;28;20056;-69
2022/01/15 06:29:47;;;;;;;19.02;12.00;;;;;;;2.27;100.00;101017.41;5074154;28;20036;-66
2022/01/15 06:32:12;;;;;;;15.98;10.70;;;;;;;2.43;100.00;101016.97;5073395;28;20127;-69
2022/01/15 06:34:39;;;;;;;21.42;12.30;;;;;;;2.56;100.00;101022.22;5074128;28;20032;-69
2022/01/15 06:37:07;;;;;;;17.85;11.32;;;;;;;2.72;100.00;101005.59;5073780;28;20064;-69
2022/01/15 06:39:33;;;;;;;19.25;12.00;;;;;;;2.82;100.00;101012.28;5073873;28;20035;-69
2022/01/15 06:41:59;;;;;;;25.67;12.95;;;;;;;2.68;100.00;101012.13;5037976;28;20433;-69
2022/01/15 06:44:25;;;;;;;21.05;12.18;;;;;;;2.73;100.00;101022.69;5073811;28;20056;-69
2022/01/15 06:46:50;;;;;;;19.90;11.27;;;;;;;2.67;100.00;101023.06;5073726;28;20067;-69
2022/01/15 06:49:19;;;;;;;15.93;10.23;;;;;;;2.77;100.00;101039.06;5073605;28;20462;-69
2022/01/15 06:51:44;;;;;;;17.73;10.73;;;;;;;2.87;100.00;101033.94;5073513;28;20024;-69
2022/01/15 06:54:10;;;;;;;16.48;10.35;;;;;;;2.92;100.00;101030.06;5073055;28;20021;-70
2022/01/15 06:56:35;;;;;;;23.35;12.63;;;;;;;2.63;100.00;100982.84;5073635;28;20028;-69
2022/01/15 06:59:01;;;;;;;23.58;12.77;;;;;;;2.90;100.00;101029.97;5073472;28;20033;-70
2022/01/15 07:01:27;;;;;;;23.58;13.85;;;;;;;2.86;100.00;101037.25;5073334;28;20538;-70
2022/01/15 07:03:52;;;;;;;21.48;13.40;;;;;;;2.83;100.00;101045.56;5073426;28;20020;-70
2022/01/15 07:06:18;;;;;;;44.55;27.30;;;;;;;2.81;100.00;101036.00;5073167;28;20032;-70
2022/01/15 07:08:43;;;;;;;78.22;46.10;;;;;;;2.90;100.00;101050.38;5072966;28;20078;-70
2022/01/15 07:11:10;;;;;;;24.80;14.90;;;;;;;3.04;100.00;101048.88;5072903;28;20056;-73
2022/01/15 07:13:35;;;;;;;33.58;14.10;;;;;;;3.08;100.00;101043.22;5073340;28;20032;-70
2022/01/15 07:16:01;;;;;;;31.58;13.60;;;;;;;2.78;100.00;101000.97;5073049;28;20025;-68
2022/01/15 07:18:26;;;;;;;32.72;13.45;;;;;;;3.14;100.00;101047.00;5072947;28;20024;-68
2022/01/15 07:20:52;;;;;;;23.35;12.82;;;;;;;3.04;100.00;101041.22;5073037;28;20692;-70
2022/01/15 07:23:18;;;;;;;16.70;11.18;;;;;;;2.74;100.00;100982.00;5072853;28;20063;-70
2022/01/15 07:25:44;;;;;;;29.10;15.80;;;;;;;3.20;100.00;101063.69;5073259;28;20039;-70
2022/01/15 07:28:09;;;;;;;29.30;14.35;;;;;;;3.22;100.00;101072.31;5072992;28;20020;-70
2022/01/15 07:30:35;;;;;;;29.13;14.25;;;;;;;2.80;100.00;100999.41;5072975;28;20490;-70
2022/01/15 07:33:01;;;;;;;25.58;13.00;;;;;;;3.25;100.00;101074.22;5072856;28;20020;-70
2022/01/15 07:35:27;;;;;;;25.25;11.80;;;;;;;3.34;100.00;101085.16;5072705;28;20475;-70
2022/01/15 07:37:52;;;;;;;23.67;12.40;;;;;;;3.38;100.00;101092.25;5072430;28;20505;-70
2022/01/15 07:40:18;;;;;;;20.13;11.82;;;;;;;3.39;100.00;101090.59;5072699;28;20020;-69
2022/01/15 07:42:44;;;;;;;27.75;16.90;;;;;;;3.29;100.00;101089.00;5072682;28;20029;-69
2022/01/15 07:45:16;;;;;;;25.60;15.43;;;;;;;3.33;100.00;101096.13;5072771;28;20078;-70
2022/01/15 07:47:43;;;;;;;25.63;15.98;;;;;;;3.22;100.00;101099.53;5072549;28;20094;-70
2022/01/15 07:50:13;;;;;;;16.92;11.35;;;;;;;3.12;100.00;101118.31;5072439;28;20034;-69
2022/01/15 07:52:38;;;;;;;;;;;;;;;3.10;100.00;101131.75;5072727;28;20024;-70
2022/01/15 07:55:05;;;;;;;18.27;11.20;;;;;;;3.27;100.00;101141.59;5072164;28;19987;-70
2022/01/15 07:57:34;;;;;;;16.77;10.93;;;;;;;3.37;100.00;101130.44;5072193;28;20031;-72
2022/01/15 07:59:59;;;;;;;17.85;12.38;;;;;;;3.43;100.00;101143.66;5072185;28;20067;-72
2022/01/15 08:02:26;;;;;;;20.35;11.30;;;;;;;3.26;100.00;101100.66;5072163;28;20063;-74
2022/01/15 08:04:51;;;;;;;17.30;10.80;;;;;;;3.47;100.00;101143.09;5072087;28;20486;-70
2022/01/15 08:07:18;;;;;;;15.95;9.38;;;;;;;3.54;100.00;101147.03;5072055;28;20028;-70
2022/01/15 08:09:44;;;;;;;16.95;9.70;;;;;;;3.63;100.00;101147.72;5072136;28;20108;-70
2022/01/15 08:12:11;;;;;;;15.48;9.25;;;;;;;3.65;100.00;101130.88;5072159;28;20112;-69
2022/01/15 08:14:37;;;;;;;15.18;10.25;;;;;;;3.79;100.00;101137.00;5071907;28;20036;-71
2022/01/15 08:17:03;;;;;;;16.45;10.98;;;;;;;3.94;100.00;101149.13;5072266;28;20036;-70
2022/01/15 08:19:28;;;;;;;16.02;10.25;;;;;;;3.97;100.00;101139.16;5071795;28;20070;-72
2022/01/15 08:21:53;;;;;;;16.10;10.25;;;;;;;4.14;100.00;101150.63;5072084;28;20036;-70
2022/01/15 08:24:19;;;;;;;19.75;11.45;;;;;;;4.15;99.36;101142.16;5054015;28;20471;-71
2022/01/15 08:26:45;;;;;;;55.63;28.38;;;;;;;4.25;99.24;101161.63;5071939;28;20086;-70
2022/01/15 08:29:11;;;;;;;49.35;22.50;;;;;;;4.31;97.86;101154.41;5071688;28;20379;-71
2022/01/15 08:31:37;;;;;;;52.30;23.25;;;;;;;4.30;97.42;101152.63;5070936;28;20109;-71
2022/01/15 08:34:02;;;;;;;30.70;15.45;;;;;;;4.48;97.47;101158.19;5070732;28;20021;-70
2022/01/15 08:36:28;;;;;;;22.00;11.50;;;;;;;4.53;95.98;101156.84;5018726;28;20051;-68
2022/01/15 08:38:54;;;;;;;21.52;12.30;;;;;;;4.41;96.93;101131.31;5070847;28;20040;-73
2022/01/15 08:41:19;;;;;;;16.67;10.68;;;;;;;4.63;95.92;101163.53;5018798;28;20040;-70
2022/01/15 08:43:45;;;;;;;17.02;9.38;;;;;;;4.85;94.04;101156.59;5070274;28;20064;-70
2022/01/15 08:46:11;;;;;;;171.43;83.45;;;;;;;4.90;95.07;101167.16;5070509;28;20032;-71
2022/01/15 08:48:37;;;;;;;21.75;14.18;;;;;;;4.89;94.95;101167.06;5070362;28;20031;-70
2022/01/15 08:51:03;;;;;;;16.13;10.35;;;;;;;4.64;94.63;101119.28;5070244;28;20041;-68
2022/01/15 08:53:31;;;;;;;16.27;10.18;;;;;;;4.98;94.28;101168.59;5070660;28;20037;-71
2022/01/15 08:55:57;;;;;;;17.35;11.05;;;;;;;5.10;93.61;101170.25;5070437;28;20049;-70
2022/01/15 08:58:25;;;;;;;21.05;13.73;;;;;;;5.21;93.34;101176.09;5070802;28;20063;-70
2022/01/15 09:00:54;;;;;;;17.92;11.07;;;;;;;5.10;93.95;101150.66;5070444;28;20028;-70
2022/01/15 09:03:20;;;;;;;20.08;12.25;;;;;;;5.35;95.19;101177.97;5070203;28;20467;-69
2022/01/15 09:05:46;;;;;;;18.63;10.80;;;;;;;5.29;94.81;101180.97;5070401;28;20024;-70
2022/01/15 09:08:11;;;;;;;18.70;10.95;;;;;;;5.34;94.52;101176.19;5052437;28;20025;-69
2022/01/15 09:10:41;;;;;;;22.83;12.40;;;;;;;5.08;95.63;101128.31;5070257;28;20037;-69
2022/01/15 09:13:09;;;;;;;16.75;10.27;;;;;;;5.45;95.30;101174.38;5070116;28;20107;-71
2022/01/15 09:15:35;;;;;;;18.15;10.95;;;;;;;5.10;95.05;101106.28;5070158;28;20127;-70
2022/01/15 09:18:00;;;;;;;13.60;9.13;;;;;;;5.63;91.69;101178.19;5069835;28;20111;-70
2022/01/15 09:20:26;;;;;;;16.98;10.38;;;;;;;5.66;91.16;101174.97;5049168;28;20406;-69
2022/01/15 09:22:51;;;;;;;15.90;9.68;;;;;;;5.58;90.24;101141.16;5070045;28;20043;-70
2022/01/15 09:25:18;;;;;;;15.25;10.30;;;;;;;5.55;89.67;101123.00;5070320;28;20025;-67
2022/01/15 09:30:28;;;;;;;13.63;9.07;;;;;;;6.10;88.16;101165.94;5029078;28;1162065;-70
2022/01/15 09:32:55;;;;;;;17.33;9.20;;;;;;;6.24;87.65;101162.63;5070687;28;20041;-69
2022/01/15 09:35:25;;;;;;;14.20;9.07;;;;;;;6.40;86.09;101151.66;5070704;28;20473;-70
2022/01/15 09:37:51;;;;;;;14.68;9.05;;;;;;;6.47;86.06;101140.13;5069460;28;20032;-69
2022/01/15 09:40:19;;;;;;;14.68;9.32;;;;;;;6.63;85.23;101159.97;5070539;28;20158;-69
2022/01/15 09:42:47;;;;;;;14.23;8.93;;;;;;;6.76;82.39;101161.63;5070544;28;20483;-69
2022/01/15 09:45:13;;;;;;;13.57;8.23;;;;;;;6.78;81.67;101158.38;5052593;28;20036;-69
2022/01/15 09:47:39;;;;;;;11.85;7.72;;;;;;;6.93;81.54;101148.19;5070389;28;20032;-70
2022/01/15 09:50:11;;;;;;;12.07;7.60;;;;;;;6.85;81.31;101115.13;5070537;28;20505;-72
2022/01/15 09:52:37;;;;;;;12.80;9.00;;;;;;;7.16;82.35;101151.28;5070512;28;20025;-70
2022/01/15 09:55:05;;;;;;;11.15;7.25;;;;;;;7.26;80.61;101151.06;5070309;28;20037;-70
2022/01/15 09:57:30;;;;;;;11.75;7.63;;;;;;;7.34;79.74;101150.63;5072998;28;20107;-70
2022/01/15 09:59:56;;;;;;;11.45;7.63;;;;;;;7.45;78.79;101168.50;5074806;28;20034;-70
2022/01/15 10:02:21;;;;;;;13.77;8.75;;;;;;;7.49;83.30;101161.84;5074697;28;20127;-70
2022/01/15 10:04:47;;;;;;;13.95;8.43;;;;;;;7.44;83.15;101160.69;5074612;28;20040;-70
2022/01/15 10:07:17;;;;;;;15.38;9.25;;;;;;;7.25;84.07;101159.56;5074447;28;20078;-68
2022/01/15 10:09:45;;;;;;;13.80;9.13;;;;;;;7.30;83.62;101146.97;5074372;28;20024;-70
2022/01/15 10:12:22;;;;;;;14.23;9.00;;;;;;;7.41;82.78;101150.22;5074122;28;20109;-69
2022/01/15 10:14:47;;;;;;;14.68;8.85;;;;;;;7.50;82.16;101140.50;5074278;28;20467;-70
2022/01/15 10:17:24;;;;;;;13.60;8.68;;;;;;;7.65;81.67;101142.22;5074122;28;20029;-70
2022/01/15 10:19:50;;;;;;;13.00;9.30;;;;;;;7.55;83.08;101097.09;5074060;28;20553;-71
2022/01/15 10:22:17;;;;;;;14.60;10.13;;;;;;;7.77;83.73;101136.09;5073994;28;20402;-68
2022/01/15 10:24:53;;;;;;;21.33;10.65;;;;;;;7.76;83.32;101128.31;5073882;28;20390;-70
2022/01/15 10:27:43;;;;;;;14.65;8.50;;;;;;;7.47;81.28;101124.91;5031700;28;20041;-68
2022/01/15 10:30:20;;;;;;;12.80;9.38;;;;;;;7.58;81.44;101123.84;5031312;28;20047;-71
2022/01/15 10:33:08;;;;;;;16.58;9.68;;;;;;;7.54;83.09;101132.19;5031528;28;20131;-71
2022/01/15 10:35:41;;;;;;;16.38;10.10;;;;;;;7.27;83.23;101075.78;5031502;28;20555;-70
2022/01/15 10:38:19;;;;;;;12.88;8.70;;;;;;;6.83;82.79;101025.22;5031470;28;20037;-70
2022/01/15 10:40:53;;;;;;;15.02;9.43;;;;;;;7.65;82.83;101121.66;5031613;28;20148;-70
2022/01/15 10:43:20;;;;;;;13.32;9.05;;;;;;;7.48;81.96;101116.41;5031331;28;20037;-69
2022/01/15 10:45:54;;;;;;;15.40;9.55;;;;;;;7.35;82.29;101067.66;5031528;28;20044;-68
2022/01/15 10:48:31;;;;;;;14.40;9.40;;;;;;;7.63;83.33;101113.84;5014586;28;20051;-70
2022/01/15 10:51:08;;;;;;;15.07;9.77;;;;;;;7.71;82.95;101109.16;5031308;28;20086;-70
2022/01/15 10:53:43;;;;;;;50.45;29.90;;;;;;;7.69;82.59;101114.22;5031319;28;20215;-67
2022/01/15 10:56:11;;;;;;;15.45;11.15;;;;;;;7.68;82.92;101094.44;5015394;28;20064;-70
2022/01/15 10:58:38;;;;;;;17.50;11.57;;;;;;;7.86;83.36;101102.38;5051595;28;20105;-70
2022/01/15 11:01:04;;;;;;;16.15;10.73;;;;;;;7.81;81.59;101093.47;5055542;28;20028;-70
2022/01/15 11:03:43;;;;;;;13.18;9.88;;;;;;;8.07;82.68;101104.38;5072687;28;20457;-66
2022/01/15 11:06:08;;;;;;;15.45;9.27;;;;;;;8.12;80.25;101110.66;5006428;28;20133;-69
2022/01/15 11:08:36;;;;;;;19.00;12.05;;;;;;;7.76;82.22;101077.81;5004380;28;20117;-70
2022/01/15 11:11:07;;;;;;;15.93;9.57;;;;;;;7.62;81.44;101099.22;5073320;28;20037;-69
2022/01/15 11:13:36;;;;;;;12.35;8.20;;;;;;;7.29;83.40;101115.28;5073120;28;20058;-72
2022/01/15 11:16:07;;;;;;;;;;;;;;;7.13;83.87;101103.19;5073499;28;20499;-69
2022/01/15 11:18:36;;;;;;;12.90;8.73;;;;;;;7.15;84.38;101108.41;5073086;28;19904;-70
2022/01/15 11:21:04;;;;;;;14.38;8.98;;;;;;;7.05;84.62;101108.66;5072578;28;20028;-71
2022/01/15 11:23:32;;;;;;;12.90;8.65;;;;;;;7.07;84.07;101104.50;5073216;28;20465;-70
2022/01/15 11:26:01;;;;;;;15.20;9.77;;;;;;;7.01;84.52;101110.16;5072964;28;20024;-70
2022/01/15 11:28:30;;;;;;;17.60;9.65;;;;;;;6.86;84.83;101060.44;5028429;28;20037;-70
2022/01/15 11:30:58;;;;;;;13.95;9.52;;;;;;;7.16;84.11;101092.22;5030034;28;20077;-71
2022/01/15 11:33:31;;;;;;;16.00;9.93;;;;;;;7.12;83.71;101044.94;5029868;28;20041;-69
2022/01/15 11:35:58;;;;;;;12.93;7.15;;;;;;;7.45;80.03;101080.22;5013319;28;20099;-71
2022/01/15 11:38:43;;;;;;;17.85;8.27;;;;;;;7.37;81.89;101084.03;5030128;28;20509;-70
2022/01/15 11:41:29;;;;;;;12.55;8.90;;;;;;;7.42;82.93;101074.94;5029890;28;20040;-74
2022/01/15 11:44:18;;;;;;;12.70;8.18;;;;;;;7.31;82.02;101081.97;5007457;28;20042;-72
2022/01/15 11:46:53;;;;;;;12.35;8.05;;;;;;;7.38;82.29;101076.44;4977872;28;20121;-70
2022/01/15 11:49:30;;;;;;;12.43;8.90;;;;;;;7.51;83.36;101078.03;4990034;28;20497;-70
2022/01/15 11:52:18;;;;;;;15.95;9.95;;;;;;;7.60;84.38;101078.59;4989403;28;20496;-71
2022/01/15 11:54:59;;;;;;;14.25;8.52;;;;;;;7.72;84.55;101080.09;4950756;29;20536;-70